Time;durP1;ratioP1;P1;durP2;ratioP2;P2;SDS_P1;SDS_P2;PMS_P1;PMS_P2;Temp;Humidity;BMP_temperature;BMP_pressure;BME280_temperature;BME280_humidity;BME280_pressure;Samples;Min_cycle;Max_cycle;Signal;HPM_P1;HPM_P2
2022/12/04 00:01:15;;;;;;;53.83;32.65;;;1.10;99.90;;;;;;5078538;28;20474;-73
2022/12/04 00:03:44;;;;;;;50.88;32.10;;;1.10;99.90;;;;;;5096811;28;20051;-72
2022/12/04 00:06:15;;;;;;;49.03;31.55;;;1.10;99.90;;;;;;5096852;28;20059;-73
2022/12/04 00:08:42;;;;;;;51.53;30.95;;;1.10;99.90;;;;;;5097570;28;20040;-73
2022/12/04 00:11:09;;;;;;;48.30;31.35;;;1.10;99.90;;;;;;5096196;28;20032;-73
2022/12/04 00:13:36;;;;;;;48.15;31.75;;;1.10;99.90;;;;;;5095320;28;20051;-73
2022/12/04 00:16:06;;;;;;;50.13;32.20;;;1.10;99.90;;;;;;5096381;28;20039;-73
2022/12/04 00:18:32;;;;;;;53.95;32.72;;;1.10;99.90;;;;;;5096575;28;20131;-73
2022/12/04 00:20:58;;;;;;;50.50;32.40;;;1.10;99.90;;;;;;5096316;28;20048;-73
2022/12/04 00:23:26;;;;;;;48.55;32.50;;;1.10;99.90;;;;;;5095002;28;20051;-73
2022/12/04 00:25:58;;;;;;;52.50;33.22;;;1.10;99.90;;;;;;5095697;28;20040;-73
2022/12/04 00:28:23;;;;;;;51.15;33.20;;;0.90;99.90;;;;;;5096203;28;20047;-73
2022/12/04 00:30:49;;;;;;;50.95;33.20;;;1.10;99.90;;;;;;5096270;28;20483;-73
2022/12/04 00:33:14;;;;;;;54.35;33.55;;;1.00;99.90;;;;;;5096155;28;20032;-73
2022/12/04 00:35:40;;;;;;;54.10;33.88;;;1.00;99.90;;;;;;5096304;28;20105;-73
2022/12/04 00:38:05;;;;;;;55.38;35.20;;;1.10;99.90;;;;;;5096906;28;20085;-72
2022/12/04 00:40:31;;;;;;;57.08;35.20;;;1.10;99.90;;;;;;5095444;28;20059;-73
2022/12/04 00:42:57;;;;;;;55.90;35.65;;;1.00;99.90;;;;;;5095726;28;20043;-73
2022/12/04 00:45:22;;;;;;;56.65;35.60;;;1.00;99.90;;;;;;5095896;28;20032;-73
2022/12/04 00:47:48;;;;;;;52.20;32.58;;;1.00;99.90;;;;;;5095841;28;20036;-72
2022/12/04 00:50:13;;;;;;;58.00;36.30;;;1.00;99.90;;;;;;5095881;28;20071;-73
2022/12/04 00:52:39;;;;;;;55.30;35.20;;;1.00;99.90;;;;;;5096069;28;20043;-73
2022/12/04 00:55:05;;;;;;;62.10;38.28;;;1.00;99.90;;;;;;5094267;28;20044;-73
2022/12/04 00:57:31;;;;;;;56.88;36.42;;;1.00;99.90;;;;;;5095353;28;20036;-73
2022/12/04 00:59:56;;;;;;;58.75;37.17;;;1.00;99.90;;;;;;5078894;28;20441;-73
2022/12/04 01:02:22;;;;;;;59.78;37.28;;;1.00;99.90;;;;;;5074092;28;20040;-73
2022/12/04 01:04:47;;;;;;;60.72;37.80;;;1.00;99.90;;;;;;5074921;28;20510;-73
2022/12/04 01:07:13;;;;;;;61.55;38.22;;;1.00;99.90;;;;;;5075470;28;20071;-73
2022/12/04 01:09:39;;;;;;;59.83;36.95;;;0.90;99.90;;;;;;5077650;28;20395;-73
2022/12/04 01:12:04;;;;;;;62.35;38.50;;;0.90;99.90;;;;;;5095828;28;20044;-73
2022/12/04 01:14:30;;;;;;;59.47;37.28;;;0.90;99.90;;;;;;5094254;28;20472;-72
2022/12/04 01:16:55;;;;;;;64.15;38.53;;;1.50;99.90;;;;;;5095474;28;20036;-72
2022/12/04 01:19:21;;;;;;;63.60;39.30;;;0.90;99.90;;;;;;5095331;28;20047;-73
2022/12/04 01:21:47;;;;;;;62.72;40.97;;;0.90;99.90;;;;;;5094344;28;20123;-73
2022/12/04 01:24:12;;;;;;;62.45;40.22;;;0.90;99.90;;;;;;5095059;28;20046;-74
2022/12/04 01:26:38;;;;;;;64.55;40.05;;;0.90;99.90;;;;;;5095313;28;20054;-73
2022/12/04 01:29:04;;;;;;;64.22;38.75;;;0.90;99.90;;;;;;5095191;28;20173;-73
2022/12/04 01:31:30;;;;;;;68.80;41.67;;;0.90;99.90;;;;;;5095407;28;20344;-73
2022/12/04 01:33:55;;;;;;;62.50;40.95;;;0.90;99.90;;;;;;5094876;28;20051;-73
2022/12/04 01:36:26;;;;;;;67.78;41.80;;;0.90;99.90;;;;;;5095128;28;20032;-73
2022/12/04 01:38:53;;;;;;;60.65;39.72;;;0.80;99.90;;;;;;5095571;28;20340;-74
2022/12/04 01:41:23;;;;;;;63.90;42.22;;;0.90;99.90;;;;;;5094650;28;20240;-73
2022/12/04 01:44:10;;;;;;;66.35;42.45;;;0.80;99.90;;;;;;5095221;28;20135;-73
2022/12/04 01:46:37;;;;;;;67.05;42.20;;;0.80;99.90;;;;;;5095125;28;20087;-74
2022/12/04 01:49:05;;;;;;;66.13;41.15;;;0.80;99.90;;;;;;5095350;28;20048;-73
2022/12/04 01:51:38;;;;;;;66.72;41.35;;;0.90;99.90;;;;;;5093855;28;20047;-73
2022/12/04 01:54:29;;;;;;;64.47;42.20;;;0.80;99.90;;;;;;5076629;28;20036;-73
2022/12/04 01:57:09;;;;;;;66.15;43.35;;;0.80;99.90;;;;;;5076417;28;20094;-73
2022/12/04 01:59:44;;;;;;;63.83;41.90;;;0.70;99.90;;;;;;5094814;28;20048;-73
2022/12/04 02:02:14;;;;;;;72.68;44.10;;;0.70;99.90;;;;;;5094867;28;20028;-73
2022/12/04 02:04:40;;;;;;;68.25;42.97;;;0.70;99.90;;;;;;5093742;28;20460;-73
2022/12/04 02:07:05;;;;;;;63.65;39.92;;;0.70;99.90;;;;;;5095089;28;20460;-73
2022/12/04 02:09:32;;;;;;;66.70;42.38;;;0.70;99.90;;;;;;5094676;28;20040;-73
2022/12/04 02:12:34;;;;;;;65.22;42.28;;;0.70;99.90;;;;;;5094618;28;20185;-73
2022/12/04 02:15:19;;;;;;;66.25;42.65;;;0.70;99.90;;;;;;5052661;28;20056;-74
2022/12/04 02:18:08;;;;;;;68.95;43.67;;;0.70;99.90;;;;;;5095231;28;20044;-74
2022/12/04 02:21:00;;;;;;;68.90;43.03;;;0.70;99.90;;;;;;5094999;28;20052;-73
2022/12/04 02:24:03;;;;;;;72.10;46.13;;;0.60;99.90;;;;;;5055218;28;20056;-73
2022/12/04 02:26:39;;;;;;;73.18;45.17;;;0.60;99.90;;;;;;5095003;28;20044;-73
2022/12/04 02:29:11;;;;;;;67.22;42.17;;;0.60;99.90;;;;;;5094756;28;20333;-73
2022/12/04 02:31:53;;;;;;;73.15;45.45;;;0.70;99.90;;;;;;5094954;28;20051;-73
2022/12/04 02:34:28;;;;;;;70.43;44.25;;;0.60;99.90;;;;;;5094660;28;20127;-73
2022/12/04 02:37:03;;;;;;;70.22;45.13;;;0.60;99.90;;;;;;5094666;28;20444;-73
2022/12/04 02:39:43;;;;;;;69.57;44.85;;;0.70;99.90;;;;;;5089777;28;20059;-73
2022/12/04 02:42:39;;;;;;;70.50;43.15;;;0.60;99.90;;;;;;5074399;28;20133;-73
2022/12/04 02:45:09;;;;;;;69.82;44.33;;;0.50;99.90;;;;;;5004019;28;20054;-73
2022/12/04 02:47:37;;;;;;;77.07;46.33;;;0.50;99.90;;;;;;5075591;28;20063;-73
2022/12/04 02:50:09;;;;;;;71.88;45.13;;;0.50;99.90;;;;;;5077852;28;20075;-73
2022/12/04 02:52:39;;;;;;;70.70;45.33;;;0.50;99.90;;;;;;5086068;28;20088;-73
2022/12/04 02:55:11;;;;;;;71.30;43.50;;;0.50;99.90;;;;;;5098177;28;20044;-73
2022/12/04 02:57:41;;;;;;;73.10;45.40;;;0.50;99.90;;;;;;5098140;28;20123;-73
2022/12/04 03:00:08;;;;;;;71.40;45.03;;;0.50;99.90;;;;;;5098220;28;20064;-73
2022/12/04 03:03:08;;;;;;;76.93;46.67;;;0.40;99.90;;;;;;5097863;28;20116;-73
2022/12/04 03:05:42;;;;;;;73.68;46.63;;;0.50;99.90;;;;;;5093859;28;20349;-73
2022/12/04 03:08:12;;;;;;;70.20;46.53;;;0.40;99.90;;;;;;5097785;28;20051;-75
2022/12/04 03:10:45;;;;;;;74.32;45.88;;;0.40;99.90;;;;;;5097326;28;20449;-73
2022/12/04 03:13:41;;;;;;;73.10;46.22;;;0.40;99.90;;;;;;5098332;28;20417;-73
2022/12/04 03:16:28;;;;;;;74.82;45.65;;;0.50;99.90;;;;;;5097350;28;20109;-73
2022/12/04 03:19:08;;;;;;;73.78;45.97;;;0.40;99.90;;;;;;5097830;28;20055;-73
2022/12/04 03:21:37;;;;;;;71.15;46.22;;;0.50;99.90;;;;;;5097124;28;20028;-73
2022/12/04 03:24:19;;;;;;;73.53;46.47;;;0.40;99.90;;;;;;5097367;28;20051;-73
2022/12/04 03:26:49;;;;;;;76.72;47.83;;;0.40;99.90;;;;;;5097085;28;20480;-73
2022/12/04 03:29:21;;;;;;;75.82;46.85;;;0.40;99.90;;;;;;5097524;28;20054;-74
2022/12/04 03:32:03;;;;;;;70.93;45.92;;;0.40;99.90;;;;;;5097274;28;20039;-73
2022/12/04 03:34:34;;;;;;;70.93;44.80;;;0.40;99.90;;;;;;5097273;28;20067;-73
2022/12/04 03:37:04;;;;;;;74.10;46.25;;;0.40;99.90;;;;;;5097090;28;20420;-73
2022/12/04 03:39:38;;;;;;;72.85;46.08;;;0.40;99.90;;;;;;5095481;28;20052;-73
2022/12/04 03:42:15;;;;;;;73.13;47.08;;;0.40;99.90;;;;;;5097092;28;20051;-73
2022/12/04 03:44:47;;;;;;;75.32;46.97;;;0.40;99.90;;;;;;5097344;28;20341;-73
2022/12/04 03:47:17;;;;;;;73.53;45.58;;;0.40;99.90;;;;;;5096977;28;20051;-73
2022/12/04 03:50:12;;;;;;;73.00;45.65;;;0.40;99.90;;;;;;5096572;28;20047;-73
2022/12/04 03:52:49;;;;;;;81.40;48.50;;;0.40;99.90;;;;;;5092559;28;20047;-73
2022/12/04 03:55:27;;;;;;;75.65;46.50;;;0.40;99.90;;;;;;5096730;28;20048;-73
2022/12/04 03:57:58;;;;;;;76.63;47.88;;;0.40;99.90;;;;;;5096682;28;20046;-73
2022/12/04 04:00:30;;;;;;;77.75;47.90;;;0.40;99.90;;;;;;5096932;28;20436;-73
2022/12/04 04:03:05;;;;;;;78.93;47.15;;;0.40;99.90;;;;;;5096723;28;20104;-73
2022/12/04 04:05:33;;;;;;;76.57;47.47;;;0.40;99.90;;;;;;5096741;28;20024;-73
2022/12/04 04:08:36;;;;;;;75.82;47.63;;;0.40;99.90;;;;;;5096814;28;20174;-73
2022/12/04 04:11:12;;;;;;;69.50;45.15;;;0.40;99.90;;;;;;5094136;28;20519;-73
2022/12/04 04:25:23;;;;;;;76.82;48.05;;;0.30;99.90;;;;;;5096026;28;20040;-74
2022/12/04 04:27:53;;;;;;;76.68;47.92;;;0.40;99.90;;;;;;5073461;28;20152;-73
2022/12/04 04:30:20;;;;;;;76.78;47.45;;;0.30;99.90;;;;;;5076004;28;20086;-73
2022/12/04 04:33:07;;;;;;;71.28;46.58;;;0.30;99.90;;;;;;5075954;28;20032;-73
2022/12/04 04:35:40;;;;;;;75.85;48.22;;;0.30;99.90;;;;;;5075921;28;20047;-73
2022/12/04 04:38:20;;;;;;;68.97;45.00;;;0.30;99.90;;;;;;5075944;28;20048;-73
2022/12/04 04:40:58;;;;;;;70.53;44.83;;;0.50;99.90;;;;;;5077724;28;20610;-73
2022/12/04 04:43:34;;;;;;;72.93;48.50;;;0.40;99.90;;;;;;5096127;28;20124;-73
2022/12/04 04:46:07;;;;;;;76.80;48.58;;;0.40;99.90;;;;;;5094817;28;20055;-73
2022/12/04 04:48:41;;;;;;;75.53;46.55;;;0.40;99.90;;;;;;5096041;28;20093;-73
2022/12/04 04:51:08;;;;;;;78.28;49.95;;;0.40;99.90;;;;;;5095857;28;20124;-74
2022/12/04 04:53:38;;;;;;;74.03;47.00;;;0.30;99.90;;;;;;5096198;28;20050;-73
2022/12/04 04:56:05;;;;;;;70.13;45.83;;;0.40;99.90;;;;;;5101165;28;20141;-73
2022/12/04 04:58:31;;;;;;;72.80;45.42;;;0.40;99.90;;;;;;5116287;28;20067;-73
2022/12/04 05:01:00;;;;;;;75.82;47.10;;;0.40;99.90;;;;;;5098227;28;20451;-73
2022/12/04 05:03:27;;;;;;;72.07;47.80;;;0.40;99.90;;;;;;5115991;28;20039;-73
2022/12/04 05:05:53;;;;;;;75.75;48.63;;;0.40;99.90;;;;;;5115965;28;20031;-73
2022/12/04 05:08:19;;;;;;;74.70;47.47;;;0.40;99.90;;;;;;5116765;28;20048;-73
2022/12/04 05:10:45;;;;;;;77.32;47.13;;;0.40;99.90;;;;;;5090242;28;20104;-73
2022/12/04 05:13:12;;;;;;;76.70;48.03;;;0.40;99.90;;;;;;5094729;28;20127;-73
2022/12/04 05:15:37;;;;;;;72.78;47.50;;;0.40;99.90;;;;;;5094296;28;20464;-73
2022/12/04 05:18:04;;;;;;;75.32;49.47;;;0.40;99.90;;;;;;5095130;28;20047;-74
2022/12/04 05:20:30;;;;;;;73.20;47.13;;;0.40;99.90;;;;;;5095122;28;20348;-73
2022/12/04 05:22:55;;;;;;;72.38;47.45;;;0.40;99.90;;;;;;5095210;28;20036;-73
2022/12/04 05:25:21;;;;;;;74.32;47.05;;;0.40;99.90;;;;;;5095116;28;20028;-73
2022/12/04 05:27:49;;;;;;;75.57;46.67;;;0.40;99.90;;;;;;5095497;28;20051;-73
2022/12/04 05:30:15;;;;;;;73.63;46.70;;;0.10;99.90;;;;;;5095308;28;20468;-73
2022/12/04 05:32:41;;;;;;;74.03;47.55;;;0.40;99.90;;;;;;5095142;28;20042;-73
2022/12/04 05:35:07;;;;;;;73.53;47.55;;;0.40;99.90;;;;;;5094383;28;20432;-73
2022/12/04 05:37:36;;;;;;;76.88;48.85;;;0.40;99.90;;;;;;5095273;28;20119;-73
2022/12/04 05:40:03;;;;;;;70.97;46.67;;;0.40;99.90;;;;;;5094917;28;20055;-73
2022/12/04 05:42:28;;;;;;;70.47;46.80;;;0.50;99.90;;;;;;5095972;28;20056;-73
2022/12/04 05:44:57;;;;;;;74.75;46.17;;;0.40;99.90;;;;;;5095283;28;20322;-73
2022/12/04 05:47:22;;;;;;;75.70;48.13;;;0.50;99.90;;;;;;5094941;28;20086;-73
2022/12/04 05:49:48;;;;;;;68.45;45.10;;;0.50;99.90;;;;;;5095068;28;20063;-72
2022/12/04 05:52:13;;;;;;;70.28;46.00;;;0.50;99.90;;;;;;5095024;28;20043;-73
2022/12/04 05:54:39;;;;;;;70.80;46.25;;;0.40;99.90;;;;;;5093643;28;20487;-73
2022/12/04 05:57:05;;;;;;;66.88;45.90;;;0.40;99.90;;;;;;5095073;28;20352;-73
2022/12/04 05:59:31;;;;;;;71.78;48.97;;;0.40;99.90;;;;;;5094389;28;20028;-73
2022/12/04 06:01:57;;;;;;;68.65;45.53;;;0.50;99.90;;;;;;5094864;28;20052;-73
2022/12/04 06:04:26;;;;;;;70.38;48.38;;;0.50;99.90;;;;;;5095250;28;20044;-73
2022/12/04 06:06:52;;;;;;;66.20;44.80;;;1.10;99.90;;;;;;5094909;28;20036;-73
2022/12/04 06:09:18;;;;;;;69.75;45.13;;;0.50;99.90;;;;;;5093443;28;20039;-73
2022/12/04 06:11:43;;;;;;;69.95;45.80;;;0.50;99.90;;;;;;5094854;28;20040;-73
2022/12/04 06:14:12;;;;;;;68.18;45.30;;;0.50;99.90;;;;;;5095064;28;20089;-73
2022/12/04 06:16:44;;;;;;;71.13;46.05;;;0.50;99.90;;;;;;5094795;28;20075;-73
2022/12/04 06:19:13;;;;;;;70.63;45.30;;;0.50;99.90;;;;;;5094161;28;20048;-74
2022/12/04 06:21:41;;;;;;;85.50;50.85;;;0.50;99.90;;;;;;5094156;28;20380;-72
2022/12/04 06:24:09;;;;;;;68.18;46.05;;;0.40;99.90;;;;;;5098366;28;20094;-73
2022/12/04 06:26:35;;;;;;;71.45;45.42;;;0.50;99.90;;;;;;5108367;28;20040;-73
2022/12/04 06:29:00;;;;;;;73.85;46.38;;;0.50;99.90;;;;;;5116011;28;20102;-72
2022/12/04 06:31:27;;;;;;;123.40;79.25;;;0.50;99.90;;;;;;5098522;28;20470;-72
2022/12/04 06:33:54;;;;;;;82.50;54.88;;;0.50;99.90;;;;;;5098500;28;20062;-72
2022/12/04 06:36:26;;;;;;;81.22;50.70;;;0.50;99.90;;;;;;5098400;28;20082;-72
2022/12/04 06:38:54;;;;;;;73.85;48.63;;;0.50;99.90;;;;;;5098863;28;20047;-72
2022/12/04 06:41:20;;;;;;;75.80;48.53;;;0.50;99.90;;;;;;5097051;28;20064;-72
2022/12/04 06:43:47;;;;;;;79.38;50.38;;;0.50;99.90;;;;;;5096961;28;20044;-72
2022/12/04 06:46:22;;;;;;;76.15;47.88;;;0.50;99.90;;;;;;5098650;28;20045;-73
2022/12/04 06:48:48;;;;;;;78.55;49.05;;;0.50;99.90;;;;;;5098321;28;20032;-72
2022/12/04 06:51:17;;;;;;;75.50;47.30;;;0.50;99.90;;;;;;5097317;28;20122;-72
2022/12/04 06:53:44;;;;;;;75.38;48.00;;;0.50;99.90;;;;;;5097973;28;20055;-72
2022/12/04 06:56:13;;;;;;;76.60;48.38;;;0.50;99.90;;;;;;5097702;28;20044;-73
2022/12/04 06:58:39;;;;;;;81.50;49.33;;;0.50;99.90;;;;;;5097232;28;20480;-72
2022/12/04 07:01:19;;;;;;;81.38;49.10;;;0.50;99.90;;;;;;5097780;28;20159;-73
2022/12/04 07:03:45;;;;;;;79.40;48.28;;;0.50;99.90;;;;;;5096800;28;20498;-73
2022/12/04 07:06:17;;;;;;;79.88;49.78;;;0.50;99.90;;;;;;5097888;28;20046;-73
2022/12/04 07:08:47;;;;;;;82.22;48.65;;;0.50;99.90;;;;;;5097338;28;20066;-73
2022/12/04 07:11:14;;;;;;;79.78;50.80;;;0.50;99.90;;;;;;5096522;28;20047;-73
2022/12/04 07:13:40;;;;;;;82.28;48.75;;;0.50;99.90;;;;;;5097505;28;20064;-73
2022/12/04 07:16:08;;;;;;;95.82;58.45;;;0.50;99.90;;;;;;5097761;28;20412;-72
2022/12/04 07:18:34;;;;;;;85.18;51.47;;;0.40;99.90;;;;;;5097693;28;20075;-73
2022/12/04 07:21:07;;;;;;;81.93;47.08;;;0.50;99.90;;;;;;5096477;28;20073;-73
2022/12/04 07:23:34;;;;;;;82.53;51.00;;;0.50;99.90;;;;;;5097232;28;20130;-70
2022/12/04 07:26:07;;;;;;;85.63;51.22;;;0.50;99.90;;;;;;5097521;28;20114;-73
2022/12/04 07:28:33;;;;;;;;;;;0.50;99.90;;;;;;5098810;28;20048;-73
2022/12/04 07:31:03;;;;;;;84.57;50.97;;;0.40;99.90;;;;;;5097523;28;20363;-74
2022/12/04 07:33:28;;;;;;;84.65;49.50;;;0.60;99.90;;;;;;5097312;28;20495;-72
2022/12/04 07:35:58;;;;;;;89.40;52.13;;;0.40;99.90;;;;;;5097113;28;20076;-73
2022/12/04 07:38:24;;;;;;;85.00;51.17;;;0.40;99.90;;;;;;5097532;28;20083;-72
2022/12/04 07:40:50;;;;;;;85.97;50.58;;;0.40;99.90;;;;;;5096304;28;20577;-72
2022/12/04 07:43:15;;;;;;;127.60;91.95;;;0.40;99.90;;;;;;5097270;28;20040;-72
2022/12/04 07:45:41;;;;;;;89.88;55.08;;;0.40;99.90;;;;;;5097227;28;20352;-72
2022/12/04 07:48:06;;;;;;;84.13;50.72;;;0.40;99.90;;;;;;5097142;28;20044;-72
2022/12/04 07:50:32;;;;;;;82.90;50.70;;;0.50;99.90;;;;;;5096954;28;20047;-72
2022/12/04 07:52:57;;;;;;;87.22;50.88;;;0.50;99.90;;;;;;5096494;28;20047;-72
2022/12/04 07:55:26;;;;;;;84.30;50.92;;;0.50;99.90;;;;;;5096900;28;20044;-72
2022/12/04 07:57:51;;;;;;;83.85;49.20;;;0.50;99.90;;;;;;5078956;28;20043;-72
2022/12/04 08:00:18;;;;;;;79.47;48.75;;;0.50;99.90;;;;;;5096369;28;20047;-72
2022/12/04 08:02:43;;;;;;;86.28;50.40;;;0.60;99.90;;;;;;5095138;28;20066;-72
2022/12/04 08:05:09;;;;;;;81.85;50.05;;;0.60;99.90;;;;;;5096475;28;20447;-72
2022/12/04 08:07:34;;;;;;;83.72;49.47;;;0.60;99.90;;;;;;5096435;28;20050;-72
2022/12/04 08:10:00;;;;;;;91.05;53.83;;;0.60;99.90;;;;;;5096381;28;20460;-72
2022/12/04 08:12:25;;;;;;;79.25;49.28;;;0.60;99.90;;;;;;5096618;28;20364;-72
2022/12/04 08:14:51;;;;;;;85.82;51.10;;;0.60;99.90;;;;;;5096573;28;20048;-72
2022/12/04 08:17:19;;;;;;;77.20;48.17;;;0.60;99.90;;;;;;5096535;28;20040;-72
2022/12/04 08:19:45;;;;;;;77.57;47.03;;;0.70;99.90;;;;;;5096921;28;20102;-72
2022/12/04 08:22:11;;;;;;;79.80;50.40;;;0.70;99.90;;;;;;5096931;28;20076;-72
2022/12/04 08:24:37;;;;;;;78.38;48.60;;;0.70;99.90;;;;;;5095537;28;20044;-72
2022/12/04 08:27:02;;;;;;;75.28;47.92;;;0.70;99.90;;;;;;5095077;28;20040;-72
2022/12/04 08:29:28;;;;;;;71.57;46.63;;;0.70;99.90;;;;;;5096304;28;20040;-72
2022/12/04 08:31:54;;;;;;;71.32;44.92;;;0.80;99.90;;;;;;5096360;28;20361;-72
2022/12/04 08:34:19;;;;;;;74.20;47.45;;;0.80;99.90;;;;;;5095997;28;20051;-71
2022/12/04 08:36:45;;;;;;;79.07;47.28;;;0.80;99.90;;;;;;5096086;28;20040;-72
2022/12/04 08:39:12;;;;;;;74.50;47.53;;;0.90;99.90;;;;;;5095358;28;20040;-72
2022/12/04 08:41:37;;;;;;;75.43;47.60;;;0.80;99.90;;;;;;5095049;28;20074;-72
2022/12/04 08:44:03;;;;;;;71.43;45.42;;;0.80;99.90;;;;;;5095535;28;20114;-72
2022/12/04 08:46:29;;;;;;;72.82;46.45;;;0.80;99.90;;;;;;5094037;28;20419;-72
2022/12/04 08:48:55;;;;;;;70.55;46.80;;;0.90;99.90;;;;;;5095745;28;20047;-72
2022/12/04 08:51:34;;;;;;;68.28;47.03;;;0.90;99.90;;;;;;5095799;28;20039;-72
2022/12/04 08:54:03;;;;;;;68.32;44.40;;;0.90;99.90;;;;;;5077856;28;20044;-72
2022/12/04 08:56:31;;;;;;;71.43;45.65;;;1.00;99.90;;;;;;5077521;28;20039;-72
2022/12/04 08:58:58;;;;;;;72.65;45.20;;;1.00;99.90;;;;;;5095381;28;20100;-71
2022/12/04 09:01:24;;;;;;;67.38;44.90;;;1.00;99.90;;;;;;5095521;28;20067;-71
2022/12/04 09:03:53;;;;;;;69.60;45.25;;;1.00;99.90;;;;;;5094608;28;20113;-72
2022/12/04 09:06:19;;;;;;;71.35;45.38;;;1.00;99.90;;;;;;5095429;28;20420;-72
2022/12/04 09:08:50;;;;;;;68.45;43.75;;;1.00;99.90;;;;;;5095745;28;20036;-71
2022/12/04 09:11:18;;;;;;;71.85;44.10;;;1.00;99.90;;;;;;5095565;28;20048;-72
2022/12/04 09:13:44;;;;;;;71.20;47.55;;;1.10;99.90;;;;;;5095125;28;20123;-72
2022/12/04 09:16:20;;;;;;;63.75;44.63;;;1.10;99.90;;;;;;5093657;28;20110;-72
2022/12/04 09:18:49;;;;;;;66.50;43.13;;;1.10;99.90;;;;;;5095367;28;20083;-72
2022/12/04 09:21:17;;;;;;;64.28;42.85;;;1.10;99.90;;;;;;5095455;28;20352;-72
2022/12/04 09:23:42;;;;;;;62.47;41.83;;;1.20;99.90;;;;;;5095331;28;20515;-72
2022/12/04 09:26:25;;;;;;;69.88;45.35;;;1.20;99.90;;;;;;5094387;28;20055;-72
2022/12/04 09:28:52;;;;;;;65.88;42.38;;;1.70;99.90;;;;;;5094938;28;20104;-72
2022/12/04 09:31:18;;;;;;;63.33;42.80;;;1.20;99.90;;;;;;5092403;28;20347;-72
2022/12/04 09:33:45;;;;;;;61.78;42.75;;;1.20;99.90;;;;;;5095443;28;20077;-71
2022/12/04 09:36:17;;;;;;;66.75;45.28;;;1.30;99.90;;;;;;5095292;28;20048;-71
2022/12/04 09:38:45;;;;;;;67.38;43.95;;;1.30;99.90;;;;;;5095148;28;20066;-71
2022/12/04 09:41:40;;;;;;;70.95;43.13;;;1.30;99.90;;;;;;5095226;28;20346;-72
2022/12/04 09:44:29;;;;;;;59.25;42.05;;;1.70;99.90;;;;;;5094865;28;20079;-72
2022/12/04 09:47:04;;;;;;;59.15;40.17;;;1.40;99.90;;;;;;5094895;28;20054;-72
2022/12/04 09:49:42;;;;;;;56.88;39.33;;;1.50;99.90;;;;;;5094912;28;20092;-71
2022/12/04 09:52:22;;;;;;;63.97;40.65;;;1.50;99.90;;;;;;5095082;28;20376;-71
2022/12/04 09:54:50;;;;;;;61.75;40.35;;;1.50;99.90;;;;;;5094986;28;20040;-71
2022/12/04 09:57:40;;;;;;;52.28;38.20;;;1.50;99.90;;;;;;5097620;28;20440;-72
2022/12/04 10:00:10;;;;;;;51.92;37.10;;;1.60;99.90;;;;;;5097949;28;20074;-71
2022/12/04 10:02:41;;;;;;;58.47;38.13;;;1.60;99.90;;;;;;5099277;28;20055;-72
2022/12/04 10:05:35;;;;;;;51.92;38.10;;;1.70;99.90;;;;;;5099104;28;20032;-72
2022/12/04 10:08:07;;;;;;;51.40;36.33;;;1.70;99.90;;;;;;5099506;28;20044;-71
2022/12/04 10:10:37;;;;;;;54.13;34.78;;;1.70;99.90;;;;;;5098895;28;20054;-72
2022/12/04 10:13:48;;;;;;;49.17;33.78;;;1.80;99.90;;;;;;5098999;28;20112;-72
2022/12/04 10:16:23;;;;;;;49.42;35.00;;;1.90;99.90;;;;;;5055194;28;20064;-72
2022/12/04 10:19:17;;;;;;;47.97;34.03;;;1.90;99.90;;;;;;5098641;28;20040;-72
2022/12/04 10:21:48;;;;;;;46.25;32.88;;;2.00;99.90;;;;;;5100102;28;20040;-72
2022/12/04 10:24:25;;;;;;;45.05;32.92;;;2.10;99.90;;;;;;5098575;28;20056;-72
2022/12/04 10:26:57;;;;;;;44.88;31.58;;;2.10;99.90;;;;;;5099178;28;20348;-71
2022/12/04 10:29:31;;;;;;;45.10;31.90;;;2.10;99.90;;;;;;5098551;28;20066;-72
2022/12/04 10:32:12;;;;;;;43.88;31.40;;;2.20;99.90;;;;;;5098024;28;20043;-72
2022/12/04 10:34:38;;;;;;;41.65;29.58;;;2.20;99.90;;;;;;5098754;28;20047;-72
2022/12/04 10:37:10;;;;;;;45.40;30.38;;;2.30;99.90;;;;;;5096832;28;20406;-71
2022/12/04 10:39:46;;;;;;;42.05;30.50;;;2.30;99.90;;;;;;5114267;28;20040;-72
2022/12/04 10:42:59;;;;;;;44.25;30.80;;;2.30;99.90;;;;;;5099351;28;20048;-69
2022/12/04 10:45:25;;;;;;;40.65;29.48;;;2.40;99.90;;;;;;5102774;28;20048;-72
2022/12/04 10:47:52;;;;;;;39.88;28.50;;;2.30;99.90;;;;;;5118387;28;20047;-72
2022/12/04 10:50:20;;;;;;;38.40;27.98;;;2.40;99.90;;;;;;5101915;28;20345;-71
2022/12/04 10:52:48;;;;;;;41.47;28.92;;;2.40;99.90;;;;;;5112634;28;20047;-72
2022/12/04 10:55:14;;;;;;;36.42;26.70;;;2.40;99.90;;;;;;5098717;28;20067;-72
2022/12/04 10:57:44;;;;;;;38.15;27.48;;;2.40;99.90;;;;;;5081400;28;20110;-71
2022/12/04 11:00:32;;;;;;;38.80;28.13;;;2.40;99.90;;;;;;5097433;28;20036;-71
2022/12/04 11:03:01;;;;;;;35.55;27.02;;;2.40;99.90;;;;;;5096777;28;20044;-72
2022/12/04 11:05:42;;;;;;;36.85;27.13;;;2.40;99.90;;;;;;5098025;28;20414;-71
2022/12/04 11:08:23;;;;;;;37.45;27.15;;;2.40;99.90;;;;;;5096022;28;20040;-74
2022/12/04 11:10:57;;;;;;;34.85;26.70;;;2.50;99.90;;;;;;5097268;28;20426;-72
2022/12/04 11:13:23;;;;;;;37.35;26.77;;;2.40;99.90;;;;;;5097667;28;20044;-70
2022/12/04 11:15:52;;;;;;;36.90;26.23;;;2.70;99.90;;;;;;5097523;28;20444;-72
2022/12/04 11:18:25;;;;;;;33.67;25.38;;;2.50;99.90;;;;;;5097709;28;20047;-71
2022/12/04 11:20:53;;;;;;;34.45;23.95;;;2.50;99.90;;;;;;5097319;28;20040;-71
2022/12/04 11:23:19;;;;;;;33.85;24.58;;;2.50;99.90;;;;;;5096597;28;20048;-72
2022/12/04 11:25:51;;;;;;;37.50;25.77;;;2.50;99.90;;;;;;5097175;28;20039;-71
2022/12/04 11:28:29;;;;;;;33.38;24.40;;;2.50;99.90;;;;;;5093467;28;20052;-71
2022/12/04 11:30:57;;;;;;;31.00;23.45;;;2.50;99.90;;;;;;5097472;28;20449;-71
2022/12/04 11:33:43;;;;;;;31.98;23.00;;;2.50;99.90;;;;;;5097130;28;20105;-72
2022/12/04 11:36:39;;;;;;;31.40;23.52;;;2.50;99.90;;;;;;5114207;28;20058;-72
2022/12/04 11:39:09;;;;;;;40.25;24.25;;;2.50;99.90;;;;;;5089617;28;20159;-72
2022/12/04 11:41:35;;;;;;;32.17;24.13;;;2.50;99.90;;;;;;5105503;28;20152;-72
2022/12/04 11:44:01;;;;;;;32.55;23.98;;;2.50;99.90;;;;;;5111608;28;20472;-71
2022/12/04 11:46:29;;;;;;;35.22;25.75;;;2.50;99.90;;;;;;5111722;28;20050;-72
2022/12/04 11:48:55;;;;;;;31.55;23.75;;;2.50;99.90;;;;;;5105651;28;20115;-72
2022/12/04 11:51:27;;;;;;;36.42;24.58;;;2.50;99.90;;;;;;5111305;28;20111;-71
2022/12/04 11:54:21;;;;;;;32.22;23.67;;;2.50;99.90;;;;;;5099487;28;20140;-71
2022/12/04 11:57:17;;;;;;;34.67;24.83;;;2.50;99.90;;;;;;5117111;28;20110;-71
2022/12/04 11:59:57;;;;;;;33.30;24.30;;;2.50;99.90;;;;;;5117415;28;20054;-72
2022/12/04 12:02:45;;;;;;;34.78;26.17;;;2.50;99.90;;;;;;5117180;28;20040;-71
2022/12/04 12:05:28;;;;;;;33.55;24.38;;;2.50;99.90;;;;;;5117070;28;20032;-72
2022/12/04 12:08:15;;;;;;;31.30;23.58;;;2.50;99.90;;;;;;5106095;28;20035;-72
2022/12/04 12:10:53;;;;;;;33.75;25.17;;;2.60;99.90;;;;;;5088504;28;20047;-71
2022/12/04 12:13:21;;;;;;;30.58;23.00;;;2.60;99.90;;;;;;5095973;28;20036;-73
2022/12/04 12:16:11;;;;;;;32.72;23.58;;;2.60;99.90;;;;;;5095908;28;20302;-73
2022/12/04 12:19:12;;;;;;;33.08;24.35;;;2.60;99.90;;;;;;5095987;28;20043;-73
2022/12/04 12:21:56;;;;;;;32.38;23.75;;;2.70;99.90;;;;;;5077227;28;20040;-73
2022/12/04 12:24:29;;;;;;;32.92;23.40;;;2.60;99.90;;;;;;5095667;28;20356;-73
2022/12/04 12:27:06;;;;;;;35.85;24.75;;;2.70;99.90;;;;;;5094697;28;20126;-72
2022/12/04 12:29:53;;;;;;;32.60;23.67;;;2.70;99.90;;;;;;5095488;28;20424;-72
2022/12/04 12:32:36;;;;;;;37.35;23.88;;;2.70;99.90;;;;;;5096138;28;20043;-72
2022/12/04 12:35:13;;;;;;;35.55;24.77;;;2.70;99.90;;;;;;5097231;28;20048;-72
2022/12/04 12:37:45;;;;;;;67.25;26.83;;;2.70;99.90;;;;;;5097553;28;20059;-71
2022/12/04 12:40:21;;;;;;;33.72;24.10;;;2.70;99.90;;;;;;5102607;28;20048;-71
2022/12/04 12:42:54;;;;;;;33.80;24.52;;;2.70;99.90;;;;;;5096770;28;20050;-72
2022/12/04 12:45:28;;;;;;;31.83;23.60;;;2.70;99.90;;;;;;5100424;28;20387;-72
2022/12/04 12:47:58;;;;;;;33.38;23.85;;;2.70;99.90;;;;;;5082838;28;20110;-72
2022/12/04 12:50:47;;;;;;;33.17;24.33;;;2.70;99.90;;;;;;5107984;28;20432;-72
2022/12/04 12:53:18;;;;;;;32.80;24.10;;;2.70;99.90;;;;;;5098153;28;20056;-71
2022/12/04 12:55:53;;;;;;;34.97;25.10;;;2.70;99.90;;;;;;5095335;28;20428;-71
2022/12/04 12:58:37;;;;;;;34.92;25.63;;;2.70;99.90;;;;;;5094014;28;20390;-72
2022/12/04 13:01:14;;;;;;;36.15;24.27;;;2.70;99.90;;;;;;5096999;28;20371;-72
2022/12/04 13:03:48;;;;;;;33.83;24.15;;;2.70;99.90;;;;;;5099891;28;20074;-71
2022/12/04 13:06:20;;;;;;;39.90;24.67;;;2.80;99.90;;;;;;5105247;28;20047;-70
2022/12/04 13:09:10;;;;;;;34.90;25.10;;;2.70;99.90;;;;;;5095740;28;20469;-72
2022/12/04 13:11:37;;;;;;;37.50;27.38;;;2.70;99.90;;;;;;5074412;28;20193;-72
2022/12/04 13:14:04;;;;;;;33.17;25.20;;;2.80;99.90;;;;;;5091042;28;20383;-72